Airfield :
LOGIN :

Register | Disclaimer

   EN    FR    IT 

 










Legend :    VFR   Marginal VFR   IFR   Intensive IFR   Very Intensive IFR
Visi :
Ceiling :
>= 8 km
>= 3000ft
5 to 8 km
1000 to 3000 ft
1500m to 5 km
500 to 1000 ft
800 to 1500m
200 to 500 ft
< 800m
< 200 ft
Symbols :   Thunderstorms  Fog  Heavy snow  Heavy precipitations  Wind > 20 kt
SIGMETs :     Misc.  Thunderstorms  Icing  Turbulence  Mountain Waves  Volcanic Ashes







- Airport Elevation : 1197 ft
- IATA code : SPM


ETAD - Spangdahlem Ab

CURRENT METAR :
  • 270556Z AUTO 07008KT 9999 CLR 20/15 A3029 RMK AO2 SLP229 T02010151 10211 20180 51007 $

EXPIRED METARs :
  • 270456Z AUTO 04007KT 9999 CLR 19/15 A3029 RMK AO2 SLP228 T01870148 $
  • 270356Z AUTO 03006KT 9999 CLR 18/15 A3028 RMK AO2 SLP224 T01800149 $

TAF TAF ETAD
Valid from the 27 at 04:00 until the 28 at 10:00 UTC


270400Z 2704/2810 04009KT 9999 FEW040 QNH3026INS
BECMG 2802/2803 04006KT 8000 BR SKC QNH3027INS
BECMG 2805/2806 05009KT 9999 NSW SKC QNH3026INS TX28/2714Z TN14/2803Z
No reported NOTAMs for that airfield.



MET'MAP, your aeronautical weather chart ! - Copyright ORBIFLY December 2007 - Disclaimer

ORBIFLY MET'MAP TEAM :

Programming & Development : Alexandra Zaïnal
Concept & Development : Baudouin d'Aumeries
Co-Development & Prog : Marc-Olivier Méhu
Technical & hardware support : Manuel Goepfert

Contact : metmap@orbifly.com




SOURCES & CREDITS :

   NOAA